Time;durP1;ratioP1;P1;durP2;ratioP2;P2;SDS_P1;SDS_P2;PMS_P1;PMS_P2;Temp;Humidity;BMP_temperature;BMP_pressure;BME280_temperature;BME280_humidity;BME280_pressure;Samples;Min_cycle;Max_cycle;Signal;HPM_P1;HPM_P2
2023/06/01 00:01:33;;;;;;;17.40;7.03;;;;;;;12.91;100.00;102215.41;5109765;28;20016;-76
2023/06/01 00:03:59;;;;;;;16.27;6.95;;;;;;;12.83;100.00;102213.63;5109540;28;20089;-75
2023/06/01 00:06:28;;;;;;;19.25;7.68;;;;;;;12.79;100.00;102215.00;5109430;28;20534;-75
2023/06/01 00:08:54;;;;;;;13.85;6.70;;;;;;;12.74;100.00;102219.22;5109546;28;20020;-75
2023/06/01 00:11:20;;;;;;;20.17;7.45;;;;;;;12.71;100.00;102217.75;5109358;28;20105;-76
2023/06/01 00:13:45;;;;;;;15.05;6.47;;;;;;;12.60;100.00;102202.06;5109379;28;20473;-76
2023/06/01 00:16:12;;;;;;;18.35;8.23;;;;;;;12.59;100.00;102219.16;5109236;28;20520;-76
2023/06/01 00:18:37;;;;;;;18.38;8.23;;;;;;;12.57;100.00;102216.63;5109341;28;20035;-75
2023/06/01 00:21:03;;;;;;;16.83;8.02;;;;;;;12.53;100.00;102212.66;5109713;28;20451;-76
2023/06/01 00:23:28;;;;;;;17.25;7.55;;;;;;;12.46;100.00;102215.19;5109204;28;20051;-76
2023/06/01 00:25:54;;;;;;;20.83;8.02;;;;;;;12.37;100.00;102197.53;5109283;28;20015;-75
2023/06/01 00:28:19;;;;;;;16.08;7.53;;;;;;;12.32;100.00;102207.91;5091257;28;20031;-75
2023/06/01 00:30:44;;;;;;;16.13;6.07;;;;;;;12.33;100.00;102209.56;5109065;28;20032;-75
2023/06/01 00:33:10;;;;;;;17.15;7.30;;;;;;;12.30;100.00;102212.59;5109135;28;20491;-75
2023/06/01 00:35:35;;;;;;;18.42;7.82;;;;;;;12.21;100.00;102203.78;5108820;28;20036;-75
2023/06/01 00:38:01;;;;;;;19.15;7.65;;;;;;;12.14;100.00;102204.66;5108709;28;20442;-75
2023/06/01 00:40:26;;;;;;;15.93;7.53;;;;;;;12.10;100.00;102211.34;5090734;28;20035;-75
2023/06/01 00:42:51;;;;;;;19.75;8.20;;;;;;;12.03;100.00;102211.22;5108936;28;20028;-75
2023/06/01 00:45:17;;;;;;;16.27;6.63;;;;;;;11.98;100.00;102214.41;5108891;28;20031;-75
2023/06/01 00:47:43;;;;;;;16.17;7.38;;;;;;;11.90;100.00;102208.25;5109110;28;20027;-75
2023/06/01 00:50:11;;;;;;;17.27;8.38;;;;;;;11.80;100.00;102214.59;5090662;28;20082;-75
2023/06/01 00:52:37;;;;;;;17.52;7.38;;;;;;;11.73;100.00;102221.63;5108801;28;20032;-75
2023/06/01 00:55:04;;;;;;;18.00;6.43;;;;;;;11.66;100.00;102209.97;5103132;28;20024;-75
2023/06/01 00:57:30;;;;;;;14.23;6.50;;;;;;;11.61;100.00;102220.31;5089447;28;20028;-75
2023/06/01 00:59:57;;;;;;;15.55;7.22;;;;;;;11.47;100.00;102211.13;5089343;28;20028;-75
2023/06/01 01:02:23;;;;;;;16.92;6.75;;;;;;;11.44;100.00;102211.47;5073232;28;20043;-75
2023/06/01 01:04:52;;;;;;;17.38;7.45;;;;;;;11.40;100.00;102219.00;5112892;28;20040;-75
2023/06/01 01:07:47;;;;;;;16.35;6.15;;;;;;;11.34;100.00;102214.34;5112963;28;20032;-75
2023/06/01 01:10:38;;;;;;;15.93;6.70;;;;;;;11.31;100.00;102219.16;5112943;28;20031;-75
2023/06/01 01:13:58;;;;;;;17.45;7.18;;;;;;;11.25;100.00;102219.84;5113024;28;20208;-75
2023/06/01 01:16:31;;;;;;;17.77;6.95;;;;;;;11.17;100.00;102218.84;5012947;28;20112;-75
2023/06/01 01:19:42;;;;;;;20.80;9.00;;;;;;;11.14;100.00;102226.38;5110292;28;20042;-75
2023/06/01 01:22:11;;;;;;;21.60;6.55;;;;;;;11.12;100.00;102225.69;5100812;28;20058;-75
2023/06/01 01:25:10;;;;;;;18.15;7.57;;;;;;;11.11;100.00;102227.53;5112498;28;20020;-75
2023/06/01 01:28:03;;;;;;;18.27;6.90;;;;;;;11.09;100.00;102226.03;5111488;28;20081;-75
2023/06/01 01:30:30;;;;;;;18.92;7.65;;;;;;;11.06;100.00;102223.69;5112483;28;20019;-75
2023/06/01 01:32:56;;;;;;;17.23;7.85;;;;;;;11.01;100.00;102224.19;5112557;28;20088;-75
2023/06/01 01:35:23;;;;;;;20.02;8.65;;;;;;;10.94;100.00;102218.66;5092537;28;20554;-75
2023/06/01 01:37:55;;;;;;;16.05;6.90;;;;;;;10.92;100.00;102222.50;5092994;28;20051;-75
2023/06/01 01:40:21;;;;;;;17.20;8.52;;;;;;;10.90;100.00;102232.53;5092883;28;20031;-75
2023/06/01 01:42:48;;;;;;;17.70;7.30;;;;;;;10.77;100.00;102224.13;5092758;28;20092;-75
2023/06/01 01:45:15;;;;;;;17.08;7.47;;;;;;;10.74;100.00;102228.81;5092659;28;20607;-75
2023/06/01 01:47:40;;;;;;;25.85;9.57;;;;;;;10.71;100.00;102230.97;5074460;28;20051;-75
2023/06/01 01:50:10;;;;;;;23.70;9.77;;;;;;;10.69;100.00;102232.97;5092521;28;20024;-75
2023/06/01 01:52:42;;;;;;;21.52;8.23;;;;;;;10.60;100.00;102223.28;5074258;28;20278;-75
2023/06/01 01:55:09;;;;;;;18.33;8.50;;;;;;;10.61;100.00;102231.13;5109507;28;20027;-75
2023/06/01 01:57:35;;;;;;;19.27;8.10;;;;;;;10.58;100.00;102225.25;5093715;28;20031;-75
2023/06/01 02:00:03;;;;;;;20.73;9.00;;;;;;;10.61;100.00;102236.47;5093530;28;20375;-75
2023/06/01 02:02:29;;;;;;;22.88;10.95;;;;;;;10.58;100.00;102236.75;5093740;28;20473;-75
2023/06/01 02:04:55;;;;;;;20.45;10.60;;;;;;;10.51;100.00;102230.44;5112262;28;20043;-75
2023/06/01 02:07:21;;;;;;;21.23;10.13;;;;;;;10.47;100.00;102232.56;5111758;28;20020;-75
2023/06/01 02:09:46;;;;;;;22.67;10.02;;;;;;;10.43;100.00;102225.91;5111736;28;20027;-75
2023/06/01 02:12:11;;;;;;;21.38;10.00;;;;;;;10.35;100.00;102231.22;5111228;28;20486;-75
2023/06/01 02:14:37;;;;;;;21.58;10.23;;;;;;;10.29;100.00;102223.84;5111350;28;20127;-75
2023/06/01 02:17:02;;;;;;;25.60;11.02;;;;;;;10.26;100.00;102224.97;5098213;28;20138;-75
2023/06/01 02:19:28;;;;;;;20.48;10.55;;;;;;;10.21;100.00;102224.59;5111553;28;20501;-75
2023/06/01 02:21:53;;;;;;;21.98;10.50;;;;;;;10.24;100.00;102229.63;5093386;28;20453;-75
2023/06/01 02:24:19;;;;;;;22.77;10.68;;;;;;;10.24;100.00;102224.31;5111530;28;20038;-75
2023/06/01 02:26:57;;;;;;;24.67;11.70;;;;;;;10.27;100.00;102226.69;5111436;28;20028;-75
2023/06/01 02:29:23;;;;;;;24.90;11.35;;;;;;;10.26;100.00;102221.47;5111305;28;20038;-75
2023/06/01 02:31:50;;;;;;;22.77;11.18;;;;;;;10.21;100.00;102221.94;5111408;28;20027;-75
2023/06/01 02:34:16;;;;;;;21.70;11.95;;;;;;;10.23;100.00;102221.78;5111258;28;20058;-74
2023/06/01 02:36:41;;;;;;;22.75;11.13;;;;;;;10.25;100.00;102214.47;5111318;28;20028;-75
2023/06/01 02:39:06;;;;;;;21.13;10.73;;;;;;;10.26;100.00;102218.78;5092800;28;20122;-75
2023/06/01 02:41:32;;;;;;;22.75;9.57;;;;;;;10.29;100.00;102215.84;5109713;28;20045;-75
2023/06/01 02:43:57;;;;;;;21.05;10.13;;;;;;;10.31;100.00;102220.00;5111158;28;20111;-75
2023/06/01 02:46:23;;;;;;;19.70;10.90;;;;;;;10.24;100.00;102210.13;5109597;28;20027;-75
2023/06/01 02:48:48;;;;;;;20.58;10.40;;;;;;;10.28;100.00;102217.66;5111076;28;20501;-75
2023/06/01 02:51:13;;;;;;;24.98;10.55;;;;;;;10.26;100.00;102218.78;5110990;28;20645;-75
2023/06/01 02:53:40;;;;;;;16.58;8.25;;;;;;;10.24;100.00;102220.78;5111380;28;20494;-75
2023/06/01 02:56:05;;;;;;;18.38;9.23;;;;;;;10.24;100.00;102221.63;5110944;28;21037;-75
2023/06/01 02:58:31;;;;;;;21.23;8.98;;;;;;;10.19;100.00;102218.63;5110903;28;20028;-75
2023/06/01 03:00:57;;;;;;;20.60;9.77;;;;;;;10.19;100.00;102231.09;5110802;28;20118;-75
2023/06/01 03:03:26;;;;;;;17.48;8.65;;;;;;;10.14;100.00;102223.59;5110783;28;20023;-75
2023/06/01 03:05:52;;;;;;;18.38;8.85;;;;;;;10.14;100.00;102233.41;5092594;28;20054;-75
2023/06/01 03:08:17;;;;;;;17.85;8.93;;;;;;;10.11;100.00;102234.56;5110482;28;20501;-75
2023/06/01 03:10:43;;;;;;;16.77;8.52;;;;;;;10.10;100.00;102225.72;5092357;28;20039;-75
2023/06/01 03:13:08;;;;;;;20.45;9.32;;;;;;;10.14;100.00;102228.94;5110484;28;20151;-75
2023/06/01 03:15:34;;;;;;;20.05;8.65;;;;;;;10.12;100.00;102222.09;5110430;28;20096;-75
2023/06/01 03:18:00;;;;;;;20.35;10.50;;;;;;;10.12;100.00;102228.25;5092040;28;20378;-75
2023/06/01 03:20:26;;;;;;;21.55;10.18;;;;;;;10.02;100.00;102220.34;5110721;28;20035;-75
2023/06/01 03:22:51;;;;;;;22.30;9.20;;;;;;;10.10;100.00;102231.06;5110250;28;20024;-75
2023/06/01 03:25:17;;;;;;;19.00;8.32;;;;;;;10.09;100.00;102232.06;5109299;28;20066;-75
2023/06/01 03:27:43;;;;;;;22.48;10.13;;;;;;;10.07;100.00;102227.88;5091891;28;20028;-75
2023/06/01 03:30:10;;;;;;;18.95;8.60;;;;;;;10.05;100.00;102237.88;5092178;28;20436;-76
2023/06/01 03:32:40;;;;;;;15.75;8.20;;;;;;;10.01;100.00;102223.19;5072415;28;20040;-75
2023/06/01 03:35:07;;;;;;;19.70;9.45;;;;;;;10.00;100.00;102226.84;5090352;28;20043;-75
2023/06/01 03:37:37;;;;;;;18.58;9.00;;;;;;;9.98;100.00;102223.50;5109776;28;20048;-75
2023/06/01 03:40:10;;;;;;;17.58;7.38;;;;;;;9.99;100.00;102230.50;5083201;28;20040;-75
2023/06/01 03:42:44;;;;;;;19.45;8.02;;;;;;;10.00;100.00;102232.19;5090370;28;20114;-75
2023/06/01 03:45:10;;;;;;;18.05;7.80;;;;;;;10.00;100.00;102225.00;5088720;28;20395;-75
2023/06/01 03:47:35;;;;;;;18.08;8.95;;;;;;;10.02;100.00;102219.53;5090390;28;20032;-75
2023/06/01 03:50:03;;;;;;;16.80;8.45;;;;;;;10.07;100.00;102228.72;5089958;28;20028;-76
2023/06/01 03:52:28;;;;;;;20.33;8.63;;;;;;;10.01;100.00;102232.03;5090220;28;20475;-75
2023/06/01 03:54:56;;;;;;;17.88;8.88;;;;;;;9.96;100.00;102228.16;5090170;28;20036;-75
2023/06/01 03:57:21;;;;;;;19.13;8.82;;;;;;;9.92;100.00;102229.47;5090305;28;20030;-75
2023/06/01 03:59:47;;;;;;;21.35;8.23;;;;;;;9.95;100.00;102232.63;5071832;28;20032;-75
2023/06/01 04:02:12;;;;;;;16.20;8.32;;;;;;;9.95;100.00;102229.97;5090213;28;20399;-75
2023/06/01 04:04:40;;;;;;;16.77;8.70;;;;;;;9.94;100.00;102232.81;5089887;28;20036;-75
2023/06/01 04:07:06;;;;;;;24.67;9.32;;;;;;;9.92;100.00;102229.47;5089994;28;20036;-75
2023/06/01 04:09:32;;;;;;;18.02;9.07;;;;;;;9.91;100.00;102228.63;5089865;28;20348;-74
2023/06/01 04:11:58;;;;;;;18.77;8.52;;;;;;;9.96;100.00;102238.84;5089933;28;20040;-75
2023/06/01 04:14:23;;;;;;;15.43;6.82;;;;;;;9.95;100.00;102234.47;5071547;28;20035;-75
2023/06/01 04:16:48;;;;;;;17.90;9.52;;;;;;;9.95;100.00;102229.97;5089935;28;20080;-75
2023/06/01 04:19:14;;;;;;;19.55;8.63;;;;;;;9.94;100.00;102230.16;5089871;28;20058;-75
2023/06/01 04:21:40;;;;;;;26.67;9.20;;;;;;;9.96;100.00;102229.00;5071682;28;20059;-74
2023/06/01 04:24:05;;;;;;;18.40;7.95;;;;;;;9.98;100.00;102235.00;5089649;28;20107;-75
2023/06/01 04:26:35;;;;;;;19.48;9.82;;;;;;;10.03;100.00;102231.84;5090125;28;20028;-75
2023/06/01 04:29:02;;;;;;;18.85;8.68;;;;;;;10.06;100.00;102236.84;5109167;28;20031;-75
2023/06/01 04:31:28;;;;;;;16.58;8.20;;;;;;;10.07;100.00;102231.38;5106449;28;20036;-75
2023/06/01 04:33:56;;;;;;;20.08;9.95;;;;;;;10.08;100.00;102241.03;5089504;28;20399;-75
2023/06/01 04:36:24;;;;;;;17.58;8.27;;;;;;;10.05;100.00;102240.53;5089190;28;20478;-75
2023/06/01 04:38:54;;;;;;;20.50;8.57;;;;;;;10.12;100.00;102251.41;5089620;28;20051;-75
2023/06/01 04:41:21;;;;;;;17.55;9.45;;;;;;;10.15;100.00;102248.41;5089556;28;20024;-75
2023/06/01 04:43:53;;;;;;;20.40;8.93;;;;;;;10.17;100.00;102247.25;5071488;28;20839;-75
2023/06/01 04:46:24;;;;;;;19.38;8.27;;;;;;;10.19;100.00;102249.75;5089367;28;20059;-75
2023/06/01 04:48:55;;;;;;;16.48;7.97;;;;;;;10.18;100.00;102246.25;5089396;28;20115;-75
2023/06/01 04:51:21;;;;;;;20.27;9.52;;;;;;;10.21;100.00;102243.25;5089271;28;20040;-75
2023/06/01 04:53:49;;;;;;;18.80;8.75;;;;;;;10.23;100.00;102251.13;5089519;28;20028;-75
2023/06/01 04:56:17;;;;;;;18.58;9.18;;;;;;;10.24;100.00;102258.97;5089304;28;20505;-75
2023/06/01 04:58:42;;;;;;;19.10;8.88;;;;;;;10.23;100.00;102245.78;5089429;28;20032;-75
2023/06/01 05:01:07;;;;;;;20.50;8.10;;;;;;;10.13;100.00;102253.91;5089116;28;20062;-74
2023/06/01 05:03:33;;;;;;;18.10;8.75;;;;;;;10.13;100.00;102253.06;5089529;28;20118;-75
2023/06/01 05:05:58;;;;;;;20.40;9.52;;;;;;;10.06;100.00;102248.38;5089338;28;20016;-75
2023/06/01 05:08:23;;;;;;;17.95;7.97;;;;;;;10.08;100.00;102251.69;5105740;28;20095;-74
2023/06/01 05:10:49;;;;;;;19.92;9.25;;;;;;;10.09;100.00;102247.22;5090531;28;20040;-75
2023/06/01 05:13:15;;;;;;;22.25;9.98;;;;;;;10.06;100.00;102236.84;5089294;28;20024;-75
2023/06/01 05:15:40;;;;;;;19.67;8.20;;;;;;;10.10;100.00;102247.06;5089306;28;20375;-74
2023/06/01 05:18:05;;;;;;;19.50;9.75;;;;;;;10.08;100.00;102232.22;5089426;28;20028;-75
2023/06/01 05:20:31;;;;;;;17.67;9.90;;;;;;;10.16;100.00;102240.25;5093794;28;20047;-75
2023/06/01 05:22:56;;;;;;;17.83;8.35;;;;;;;10.21;100.00;102235.25;5090868;28;20054;-74
2023/06/01 05:25:22;;;;;;;16.13;7.78;;;;;;;10.23;100.00;102241.28;5098144;28;20043;-75
2023/06/01 05:27:47;;;;;;;16.80;8.35;;;;;;;10.23;100.00;102232.47;5104432;28;20027;-74
2023/06/01 05:30:12;;;;;;;16.88;7.30;;;;;;;10.29;100.00;102232.66;5108897;28;20035;-74
2023/06/01 05:32:38;;;;;;;19.58;9.43;;;;;;;10.37;100.00;102234.53;5108665;28;20033;-75
2023/06/01 05:35:04;;;;;;;19.10;9.32;;;;;;;10.44;100.00;102235.56;5108625;28;20112;-74
2023/06/01 05:37:29;;;;;;;23.90;8.93;;;;;;;10.46;100.00;102238.09;5090243;28;20482;-75
2023/06/01 05:39:55;;;;;;;17.38;7.05;;;;;;;10.58;100.00;102235.94;5108418;28;20031;-75
2023/06/01 05:42:20;;;;;;;16.00;7.75;;;;;;;10.67;100.00;102235.81;5108684;28;20030;-75
2023/06/01 05:44:45;;;;;;;16.45;7.97;;;;;;;10.64;100.00;102230.78;5108447;28;20040;-75
2023/06/01 05:47:11;;;;;;;18.70;8.60;;;;;;;10.68;100.00;102249.97;5090475;28;20470;-75
2023/06/01 05:49:36;;;;;;;18.40;7.45;;;;;;;10.63;100.00;102250.44;5094155;28;20057;-75
2023/06/01 05:52:02;;;;;;;20.25;7.57;;;;;;;10.60;100.00;102257.97;5094111;28;20027;-75
2023/06/01 05:54:27;;;;;;;20.05;8.02;;;;;;;10.63;100.00;102238.94;5111857;28;20032;-74
2023/06/01 05:56:52;;;;;;;19.80;8.27;;;;;;;10.68;100.00;102245.47;5112135;28;20103;-74
2023/06/01 05:59:18;;;;;;;18.27;8.07;;;;;;;10.65;100.00;102247.63;5110083;28;20019;-75
2023/06/01 06:01:44;;;;;;;16.10;6.55;;;;;;;10.66;100.00;102247.47;5092519;28;20024;-75
2023/06/01 06:04:10;;;;;;;15.98;7.38;;;;;;;10.59;100.00;102241.13;5092788;28;20036;-74
2023/06/01 06:06:36;;;;;;;18.80;6.97;;;;;;;10.68;100.00;102247.31;5092654;28;20028;-74
2023/06/01 06:09:02;;;;;;;18.85;9.60;;;;;;;10.84;100.00;102244.66;5102724;28;20020;-74
2023/06/01 06:11:27;;;;;;;15.43;8.23;;;;;;;11.01;100.00;102252.72;5111714;28;20464;-74
2023/06/01 06:13:53;;;;;;;18.48;7.32;;;;;;;11.08;100.00;102241.22;5103870;28;20036;-75
2023/06/01 06:16:18;;;;;;;22.23;7.20;;;;;;;11.38;100.00;102249.56;5093586;28;20031;-75
2023/06/01 06:18:44;;;;;;;14.50;6.03;;;;;;;11.53;99.76;102241.72;5111829;28;20039;-74
2023/06/01 06:21:09;;;;;;;17.50;7.57;;;;;;;11.61;99.93;102241.69;5111926;28;20031;-72
2023/06/01 06:23:35;;;;;;;15.80;7.93;;;;;;;11.84;98.69;102239.13;5111739;28;20051;-73
2023/06/01 06:26:00;;;;;;;17.38;6.40;;;;;;;11.98;99.16;102246.50;5093520;28;20023;-73
2023/06/01 06:28:26;;;;;;;16.13;7.03;;;;;;;12.15;97.94;102243.75;5111612;28;20046;-73
2023/06/01 06:30:52;;;;;;;14.52;7.38;;;;;;;12.16;97.10;102237.41;5111602;28;20102;-73
2023/06/01 06:33:17;;;;;;;16.33;6.70;;;;;;;12.28;96.15;102246.72;5111815;28;20181;-73
2023/06/01 06:35:42;;;;;;;15.57;7.35;;;;;;;12.32;95.34;102245.38;5111331;28;20539;-73
2023/06/01 06:38:08;;;;;;;16.20;7.30;;;;;;;12.21;94.72;102249.25;5102428;28;20148;-75
2023/06/01 06:40:33;;;;;;;18.30;7.78;;;;;;;12.16;94.59;102246.28;5097116;28;20083;-74
2023/06/01 06:42:58;;;;;;;17.80;8.05;;;;;;;11.97;95.06;102244.84;5110252;28;20078;-74
2023/06/01 06:45:24;;;;;;;16.08;6.10;;;;;;;12.01;95.46;102238.13;5111190;28;20062;-74
2023/06/01 06:47:49;;;;;;;19.17;7.25;;;;;;;12.13;95.54;102248.44;5111316;28;20015;-74
2023/06/01 06:50:15;;;;;;;16.73;6.82;;;;;;;12.23;94.70;102249.91;5110976;28;20036;-74
2023/06/01 06:52:40;;;;;;;16.55;6.65;;;;;;;12.27;94.75;102256.59;5111226;28;20023;-74
2023/06/01 06:55:06;;;;;;;16.33;7.95;;;;;;;12.25;93.95;102252.41;5111053;28;20155;-74
2023/06/01 06:57:33;;;;;;;17.70;7.43;;;;;;;12.14;93.99;102248.28;5111311;28;20050;-74
2023/06/01 06:59:59;;;;;;;14.32;6.43;;;;;;;12.06;93.97;102254.50;5110952;28;20122;-74
2023/06/01 07:02:25;;;;;;;18.92;7.82;;;;;;;11.96;94.17;102269.06;5092473;28;20704;-74
2023/06/01 07:04:51;;;;;;;14.75;6.13;;;;;;;11.83;95.18;102269.56;5111049;28;20027;-74
2023/06/01 07:07:17;;;;;;;14.50;6.47;;;;;;;11.76;95.04;102264.06;5110969;28;20122;-74
2023/06/01 07:09:42;;;;;;;14.18;6.22;;;;;;;11.75;95.88;102264.22;5111192;28;20431;-73
2023/06/01 07:12:08;;;;;;;14.63;6.97;;;;;;;11.74;95.76;102251.88;5108487;28;20086;-76
2023/06/01 07:14:34;;;;;;;15.23;6.97;;;;;;;11.93;95.14;102259.53;5091123;28;20043;-73
2023/06/01 07:16:59;;;;;;;16.75;7.15;;;;;;;12.06;95.79;102259.00;5091483;28;20028;-73
2023/06/01 07:19:25;;;;;;;16.85;7.32;;;;;;;12.15;94.47;102251.78;5091070;28;20386;-73
2023/06/01 07:21:50;;;;;;;15.45;6.43;;;;;;;12.25;94.69;102258.59;5077813;28;20482;-73
2023/06/01 07:24:19;;;;;;;16.63;6.13;;;;;;;12.39;94.69;102256.19;5093047;28;20027;-77
2023/06/01 07:26:44;;;;;;;21.83;7.35;;;;;;;12.46;94.67;102252.66;5095041;28;20310;-74
2023/06/01 07:29:11;;;;;;;16.05;7.45;;;;;;;12.37;92.14;102252.88;5077119;28;20032;-77
2023/06/01 07:31:38;;;;;;;15.60;6.95;;;;;;;12.38;92.33;102254.53;5095013;28;20456;-76
2023/06/01 07:34:04;;;;;;;18.80;7.72;;;;;;;12.42;92.25;102248.69;5094851;28;20108;-78
2023/06/01 07:36:36;;;;;;;16.67;7.38;;;;;;;12.50;91.13;102263.88;5091995;28;20031;-77
2023/06/01 07:39:05;;;;;;;16.08;5.82;;;;;;;12.54;92.02;102257.13;5093151;28;20048;-77
2023/06/01 07:41:31;;;;;;;16.83;5.95;;;;;;;12.52;89.46;102261.81;5076931;28;20023;-74
2023/06/01 07:43:56;;;;;;;14.15;6.55;;;;;;;12.49;90.08;102256.81;5076075;28;20028;-76
2023/06/01 07:46:22;;;;;;;17.50;7.00;;;;;;;12.56;91.03;102251.63;5096671;28;20047;-78
2023/06/01 07:48:47;;;;;;;14.73;6.88;;;;;;;12.61;91.06;102242.06;5078416;28;20093;-77
2023/06/01 07:51:12;;;;;;;20.52;7.13;;;;;;;12.78;90.33;102247.31;5073379;28;20028;-76
2023/06/01 07:53:38;;;;;;;19.98;7.05;;;;;;;12.93;89.80;102250.88;5090427;28;20024;-76
2023/06/01 07:56:03;;;;;;;16.02;6.85;;;;;;;13.00;88.77;102249.19;5090463;28;20142;-76
2023/06/01 07:58:30;;;;;;;20.33;7.13;;;;;;;13.05;90.46;102243.28;5090427;28;20048;-76
2023/06/01 08:00:56;;;;;;;14.98;7.22;;;;;;;13.15;88.39;102250.06;5093848;28;20115;-76
2023/06/01 08:03:25;;;;;;;17.02;6.72;;;;;;;13.08;86.31;102253.63;5110000;28;20063;-77
2023/06/01 08:05:57;;;;;;;18.17;7.97;;;;;;;13.12;87.48;102257.59;5088964;28;20019;-77
2023/06/01 08:08:23;;;;;;;20.27;8.63;;;;;;;13.11;86.86;102255.97;5093437;28;20437;-77
2023/06/01 08:10:48;;;;;;;20.35;7.85;;;;;;;13.20;87.21;102257.53;5096824;28;20038;-77
2023/06/01 08:13:14;;;;;;;12.60;7.10;;;;;;;13.58;85.65;102252.25;5090371;28;20126;-77
2023/06/01 08:15:39;;;;;;;16.95;6.88;;;;;;;15.41;79.75;102254.91;5103263;28;20112;-77
2023/06/01 08:18:06;;;;;;;15.27;6.65;;;;;;;17.61;69.87;102248.50;5102732;28;20028;-77
2023/06/01 08:20:31;;;;;;;15.07;6.25;;;;;;;19.03;60.89;102246.72;5090398;28;20027;-77
2023/06/01 08:22:57;;;;;;;14.40;6.57;;;;;;;20.21;58.09;102246.91;5088039;28;20039;-77
2023/06/01 08:25:23;;;;;;;12.35;5.80;;;;;;;20.68;54.93;102244.44;5082001;28;20047;-77
2023/06/01 08:27:49;;;;;;;16.20;6.35;;;;;;;21.22;53.28;102248.84;5065790;28;20028;-77
2023/06/01 08:30:15;;;;;;;15.73;7.18;;;;;;;22.08;50.66;102249.19;5078802;28;20041;-77
2023/06/01 08:32:40;;;;;;;13.98;6.35;;;;;;;22.99;48.04;102240.38;5100087;28;20024;-77
2023/06/01 08:35:07;;;;;;;14.80;6.22;;;;;;;23.94;44.68;102244.00;5095981;28;20051;-77
2023/06/01 08:37:34;;;;;;;13.23;6.97;;;;;;;23.77;44.49;102235.06;5082521;28;20025;-77
2023/06/01 08:39:59;;;;;;;16.88;7.07;;;;;;;23.84;43.62;102236.53;5104058;28;20113;-77
2023/06/01 08:42:54;;;;;;;16.55;6.97;;;;;;;23.67;48.26;102227.53;5095879;28;20490;-77
2023/06/01 08:45:20;;;;;;;15.98;5.70;;;;;;;24.20;43.04;102233.41;5089964;28;20031;-77
2023/06/01 08:47:46;;;;;;;14.18;6.93;;;;;;;24.34;42.16;102229.22;5092555;28;20031;-76
2023/06/01 08:50:12;;;;;;;14.48;7.03;;;;;;;24.12;44.04;102228.41;5078990;28;20470;-76
2023/06/01 08:52:38;;;;;;;14.80;6.38;;;;;;;25.14;41.58;102224.81;5101080;28;20039;-76
2023/06/01 08:55:04;;;;;;;11.68;6.30;;;;;;;25.05;39.48;102226.41;5098653;28;20032;-76
2023/06/01 08:57:30;;;;;;;13.00;6.53;;;;;;;24.27;41.04;102223.16;5098147;28;20054;-75
2023/06/01 08:59:57;;;;;;;15.50;6.53;;;;;;;23.77;41.57;102219.53;5097767;28;20087;-76
2023/06/01 09:02:23;;;;;;;14.48;5.95;;;;;;;22.12;46.47;102216.13;5103298;28;20051;-76
2023/06/01 09:04:49;;;;;;;15.50;6.80;;;;;;;20.71;48.69;102220.41;5099507;28;20091;-76
2023/06/01 09:07:14;;;;;;;16.38;5.82;;;;;;;19.47;51.54;102223.28;5098072;28;20028;-76
2023/06/01 09:09:40;;;;;;;15.75;7.75;;;;;;;18.43;55.33;102208.41;5097159;28;20032;-76
2023/06/01 09:12:40;;;;;;;12.27;6.10;;;;;;;17.87;57.78;102225.25;5084433;28;20044;-76
2023/06/01 09:15:17;;;;;;;14.35;6.93;;;;;;;17.16;59.87;102213.25;5050830;28;20047;-75
2023/06/01 09:17:46;;;;;;;16.10;6.65;;;;;;;16.65;61.95;102211.88;5101288;28;20359;-76
2023/06/01 09:20:23;;;;;;;16.00;6.80;;;;;;;16.49;64.26;102209.56;5098978;28;20056;-75
2023/06/01 09:22:48;;;;;;;18.70;7.43;;;;;;;16.35;64.34;102206.03;5101850;28;20051;-76
2023/06/01 09:25:14;;;;;;;15.75;6.88;;;;;;;16.30;66.37;102208.47;5103155;28;20475;-76
2023/06/01 09:27:49;;;;;;;15.18;6.90;;;;;;;16.35;65.65;102191.72;5083604;28;20032;-75
2023/06/01 09:30:17;;;;;;;14.38;7.15;;;;;;;16.48;65.41;102190.91;5105085;28;20051;-76
2023/06/01 09:32:44;;;;;;;25.83;7.43;;;;;;;16.43;65.86;102188.84;5104536;28;20386;-76
2023/06/01 09:35:10;;;;;;;16.15;8.00;;;;;;;16.44;67.38;102185.13;5104195;28;20032;-76
2023/06/01 09:37:37;;;;;;;18.13;7.55;;;;;;;16.48;66.40;102174.75;5104209;28;20138;-76
2023/06/01 09:40:16;;;;;;;11.88;6.35;;;;;;;16.71;66.37;102183.31;5105564;28;20044;-76
2023/06/01 09:42:42;;;;;;;18.25;7.78;;;;;;;16.56;66.12;102182.69;5083827;28;20388;-76
2023/06/01 09:45:21;;;;;;;17.83;7.05;;;;;;;16.70;66.84;102180.81;5084570;28;20046;-76
2023/06/01 09:47:48;;;;;;;16.25;8.13;;;;;;;16.81;67.50;102182.94;5102432;28;20048;-76
2023/06/01 09:50:34;;;;;;;20.95;6.75;;;;;;;16.89;65.38;102181.91;5103398;28;20035;-76
2023/06/01 09:52:59;;;;;;;17.05;6.32;;;;;;;16.72;64.26;102176.06;5099459;28;20031;-76
2023/06/01 09:55:25;;;;;;;17.58;6.18;;;;;;;16.55;65.42;102165.66;5102524;28;20028;-76
2023/06/01 09:57:51;;;;;;;18.45;7.20;;;;;;;16.64;65.84;102177.91;5100025;28;20379;-76
2023/06/01 10:00:24;;;;;;;15.07;7.18;;;;;;;16.80;66.96;102176.72;5085206;28;20110;-76
2023/06/01 10:02:51;;;;;;;11.10;6.20;;;;;;;16.93;65.75;102181.31;5107050;28;20577;-76
2023/06/01 10:05:17;;;;;;;13.93;7.18;;;;;;;17.05;63.04;102174.25;5086143;28;20110;-76
2023/06/01 10:07:44;;;;;;;15.15;6.05;;;;;;;17.19;66.28;102171.56;5082328;28;20570;-77
2023/06/01 10:10:13;;;;;;;16.50;6.70;;;;;;;17.14;64.56;102174.06;5101789;28;20066;-78
2023/06/01 10:12:39;;;;;;;15.73;5.90;;;;;;;17.33;66.64;102173.22;5095816;28;20027;-78
2023/06/01 10:15:05;;;;;;;15.43;6.40;;;;;;;17.36;64.10;102167.38;5095046;28;20026;-77
2023/06/01 10:17:32;;;;;;;15.60;7.40;;;;;;;17.36;63.30;102174.66;5096361;28;20016;-78
2023/06/01 10:19:58;;;;;;;15.23;7.20;;;;;;;17.27;63.71;102160.56;5096313;28;20494;-75
2023/06/01 10:22:24;;;;;;;17.48;7.32;;;;;;;17.25;63.86;102151.84;5094345;28;20027;-75
2023/06/01 10:24:56;;;;;;;16.30;7.28;;;;;;;17.33;65.89;102159.72;5076653;28;20084;-74
2023/06/01 10:27:29;;;;;;;15.00;6.60;;;;;;;17.50;64.40;102152.84;5097468;28;20431;-73
2023/06/01 10:29:55;;;;;;;13.73;6.57;;;;;;;17.66;62.85;102145.34;5096541;28;20027;-72
2023/06/01 10:32:47;;;;;;;12.52;5.95;;;;;;;17.86;63.15;102161.50;5096686;28;20032;-72
2023/06/01 10:35:32;;;;;;;14.43;6.63;;;;;;;17.89;60.77;102161.91;5077123;28;20035;-75
2023/06/01 10:38:06;;;;;;;17.65;7.55;;;;;;;17.95;61.44;102160.22;5094593;28;20071;-78
2023/06/01 10:40:35;;;;;;;17.98;6.47;;;;;;;18.06;60.89;102153.31;5093622;28;20106;-74
2023/06/01 10:43:01;;;;;;;11.68;6.10;;;;;;;18.08;61.32;102140.44;5091616;28;20016;-75
2023/06/01 10:45:40;;;;;;;19.15;7.95;;;;;;;18.27;61.66;102152.19;5095260;28;20023;-76
2023/06/01 10:48:10;;;;;;;13.82;7.28;;;;;;;18.30;60.60;102144.47;5094681;28;20100;-73
2023/06/01 10:50:36;;;;;;;16.48;7.15;;;;;;;18.36;60.85;102154.41;5095510;28;20031;-78
2023/06/01 10:53:28;;;;;;;16.55;7.13;;;;;;;18.59;62.32;102144.91;5092579;28;20032;-75
2023/06/01 10:56:26;;;;;;;18.52;9.30;;;;;;;18.71;62.14;102161.28;5095078;28;20081;-76
2023/06/01 10:59:07;;;;;;;15.82;6.88;;;;;;;18.43;59.92;102148.16;5095025;28;20077;-72
2023/06/01 11:01:43;;;;;;;15.73;6.68;;;;;;;18.28;60.72;102145.72;5095056;28;20540;-73
2023/06/01 11:04:10;;;;;;;17.05;7.47;;;;;;;18.12;60.60;102136.25;5095894;28;20031;-76
2023/06/01 11:06:39;;;;;;;18.05;6.85;;;;;;;18.34;60.38;102143.00;5101581;28;20035;-75
2023/06/01 11:09:10;;;;;;;16.45;8.40;;;;;;;18.61;61.48;102137.44;5098236;28;20031;-74
2023/06/01 11:11:48;;;;;;;15.88;8.20;;;;;;;18.60;60.85;102146.56;5092533;28;20037;-75
2023/06/01 11:14:14;;;;;;;17.65;7.47;;;;;;;18.47;60.26;102131.28;5109118;28;20031;-74
2023/06/01 11:16:40;;;;;;;16.30;7.60;;;;;;;18.55;59.34;102131.03;5095090;28;20036;-75